sensor_id;sensor_type;location;lat;lon;timestamp;temperature;humidity
44823;DHT22;51097;51.984;5.650;2022-08-23T00:00:32;23.10;99.60
44823;DHT22;51097;51.984;5.650;2022-08-23T00:02:57;23.10;99.90
44823;DHT22;51097;51.984;5.650;2022-08-23T00:05:23;23.00;99.90
44823;DHT22;51097;51.984;5.650;2022-08-23T00:07:48;23.00;99.90
44823;DHT22;51097;51.984;5.650;2022-08-23T00:10:15;23.00;99.90
44823;DHT22;51097;51.984;5.650;2022-08-23T00:12:43;23.00;99.90
44823;DHT22;51097;51.984;5.650;2022-08-23T00:15:12;22.80;99.90
44823;DHT22;51097;51.984;5.650;2022-08-23T00:17:37;22.80;99.90
44823;DHT22;51097;51.984;5.650;2022-08-23T00:20:10;22.90;99.90
44823;DHT22;51097;51.984;5.650;2022-08-23T00:22:37;22.80;99.90
44823;DHT22;51097;51.984;5.650;2022-08-23T00:25:08;22.70;99.90
44823;DHT22;51097;51.984;5.650;2022-08-23T00:27:34;22.70;99.90
44823;DHT22;51097;51.984;5.650;2022-08-23T00:30:00;22.70;99.90
44823;DHT22;51097;51.984;5.650;2022-08-23T00:32:29;22.60;99.90
44823;DHT22;51097;51.984;5.650;2022-08-23T00:34:55;22.60;99.90
44823;DHT22;51097;51.984;5.650;2022-08-23T00:37:22;22.60;99.90
44823;DHT22;51097;51.984;5.650;2022-08-23T00:39:48;22.60;99.90
44823;DHT22;51097;51.984;5.650;2022-08-23T00:45:38;22.50;99.90
44823;DHT22;51097;51.984;5.650;2022-08-23T00:48:23;22.40;99.90
44823;DHT22;51097;51.984;5.650;2022-08-23T00:53:23;22.30;99.90
44823;DHT22;51097;51.984;5.650;2022-08-23T00:55:51;22.30;99.90
44823;DHT22;51097;51.984;5.650;2022-08-23T00:58:20;22.20;99.90
44823;DHT22;51097;51.984;5.650;2022-08-23T01:00:48;22.20;99.90
44823;DHT22;51097;51.984;5.650;2022-08-23T01:03:14;22.20;99.90
44823;DHT22;51097;51.984;5.650;2022-08-23T01:06:41;22.10;99.90
44823;DHT22;51097;51.984;5.650;2022-08-23T01:09:02;22.00;99.90
44823;DHT22;51097;51.984;5.650;2022-08-23T01:11:35;21.90;99.90
44823;DHT22;51097;51.984;5.650;2022-08-23T01:14:05;21.90;99.90
44823;DHT22;51097;51.984;5.650;2022-08-23T01:19:04;21.90;99.90
44823;DHT22;51097;51.984;5.650;2022-08-23T01:21:40;21.70;99.90
44823;DHT22;51097;51.984;5.650;2022-08-23T01:24:08;21.70;99.90
44823;DHT22;51097;51.984;5.650;2022-08-23T01:26:35;21.70;99.90
44823;DHT22;51097;51.984;5.650;2022-08-23T01:29:03;21.70;99.90
44823;DHT22;51097;51.984;5.650;2022-08-23T01:31:30;21.60;99.90
44823;DHT22;51097;51.984;5.650;2022-08-23T01:34:10;21.60;99.90
44823;DHT22;51097;51.984;5.650;2022-08-23T01:36:36;21.60;99.90
44823;DHT22;51097;51.984;5.650;2022-08-23T01:39:04;21.50;99.90
44823;DHT22;51097;51.984;5.650;2022-08-23T01:41:29;21.40;99.90
44823;DHT22;51097;51.984;5.650;2022-08-23T01:43:56;21.40;99.90
44823;DHT22;51097;51.984;5.650;2022-08-23T01:46:22;21.30;99.90
44823;DHT22;51097;51.984;5.650;2022-08-23T01:48:49;21.40;99.90
44823;DHT22;51097;51.984;5.650;2022-08-23T01:51:17;21.10;99.90
44823;DHT22;51097;51.984;5.650;2022-08-23T01:53:43;21.30;99.90
44823;DHT22;51097;51.984;5.650;2022-08-23T01:56:08;21.20;99.90
44823;DHT22;51097;51.984;5.650;2022-08-23T01:58:36;21.20;99.90
44823;DHT22;51097;51.984;5.650;2022-08-23T02:01:02;21.10;99.90
44823;DHT22;51097;51.984;5.650;2022-08-23T02:03:29;20.90;99.90
44823;DHT22;51097;51.984;5.650;2022-08-23T02:05:55;21.00;99.90
44823;DHT22;51097;51.984;5.650;2022-08-23T02:08:21;21.00;99.90
44823;DHT22;51097;51.984;5.650;2022-08-23T02:11:11;21.00;99.90
44823;DHT22;51097;51.984;5.650;2022-08-23T02:13:38;21.00;99.90
44823;DHT22;51097;51.984;5.650;2022-08-23T02:16:04;20.90;99.90
44823;DHT22;51097;51.984;5.650;2022-08-23T02:18:29;20.90;99.90
44823;DHT22;51097;51.984;5.650;2022-08-23T02:20:55;20.90;99.90
44823;DHT22;51097;51.984;5.650;2022-08-23T02:23:21;20.90;99.90
44823;DHT22;51097;51.984;5.650;2022-08-23T02:25:47;20.80;99.90
44823;DHT22;51097;51.984;5.650;2022-08-23T02:28:14;20.80;99.90
44823;DHT22;51097;51.984;5.650;2022-08-23T02:30:40;20.80;99.90
44823;DHT22;51097;51.984;5.650;2022-08-23T02:33:05;20.80;99.90
44823;DHT22;51097;51.984;5.650;2022-08-23T02:35:31;20.90;99.90
44823;DHT22;51097;51.984;5.650;2022-08-23T02:38:01;21.00;99.90
44823;DHT22;51097;51.984;5.650;2022-08-23T02:40:30;20.90;99.90
44823;DHT22;51097;51.984;5.650;2022-08-23T02:42:55;20.80;99.90
44823;DHT22;51097;51.984;5.650;2022-08-23T02:45:21;20.80;99.90
44823;DHT22;51097;51.984;5.650;2022-08-23T02:47:48;20.70;99.90
44823;DHT22;51097;51.984;5.650;2022-08-23T02:50:14;20.80;99.90
44823;DHT22;51097;51.984;5.650;2022-08-23T02:52:39;20.80;99.90
44823;DHT22;51097;51.984;5.650;2022-08-23T02:55:05;20.80;99.90
44823;DHT22;51097;51.984;5.650;2022-08-23T02:57:32;20.90;99.90
44823;DHT22;51097;51.984;5.650;2022-08-23T02:59:57;20.90;99.90
44823;DHT22;51097;51.984;5.650;2022-08-23T03:02:23;20.80;99.90
44823;DHT22;51097;51.984;5.650;2022-08-23T03:04:49;20.80;99.90
44823;DHT22;51097;51.984;5.650;2022-08-23T03:07:14;20.90;99.90
44823;DHT22;51097;51.984;5.650;2022-08-23T03:09:40;20.90;99.90
44823;DHT22;51097;51.984;5.650;2022-08-23T03:12:06;20.80;99.90
44823;DHT22;51097;51.984;5.650;2022-08-23T03:14:31;20.80;99.90
44823;DHT22;51097;51.984;5.650;2022-08-23T03:16:57;20.90;99.90
44823;DHT22;51097;51.984;5.650;2022-08-23T03:19:22;20.80;99.90
44823;DHT22;51097;51.984;5.650;2022-08-23T03:21:48;20.80;99.90
44823;DHT22;51097;51.984;5.650;2022-08-23T03:24:14;20.80;99.90
44823;DHT22;51097;51.984;5.650;2022-08-23T03:26:41;20.90;99.90
44823;DHT22;51097;51.984;5.650;2022-08-23T03:29:07;20.90;99.90
44823;DHT22;51097;51.984;5.650;2022-08-23T03:31:33;20.90;99.90
44823;DHT22;51097;51.984;5.650;2022-08-23T03:33:59;20.90;99.90
44823;DHT22;51097;51.984;5.650;2022-08-23T03:36:25;20.80;99.90
44823;DHT22;51097;51.984;5.650;2022-08-23T03:38:50;20.90;99.90
44823;DHT22;51097;51.984;5.650;2022-08-23T03:41:17;20.90;99.90
44823;DHT22;51097;51.984;5.650;2022-08-23T03:43:42;20.90;99.90
44823;DHT22;51097;51.984;5.650;2022-08-23T03:46:08;20.80;99.90
44823;DHT22;51097;51.984;5.650;2022-08-23T03:48:34;20.90;99.90
44823;DHT22;51097;51.984;5.650;2022-08-23T03:51:00;20.80;99.90
44823;DHT22;51097;51.984;5.650;2022-08-23T03:53:25;20.90;99.90
44823;DHT22;51097;51.984;5.650;2022-08-23T03:55:52;20.80;99.90
44823;DHT22;51097;51.984;5.650;2022-08-23T03:58:19;20.80;99.90
44823;DHT22;51097;51.984;5.650;2022-08-23T04:00:46;20.80;99.90
44823;DHT22;51097;51.984;5.650;2022-08-23T04:03:12;20.80;99.90
44823;DHT22;51097;51.984;5.650;2022-08-23T04:05:37;20.80;99.90
44823;DHT22;51097;51.984;5.650;2022-08-23T04:08:10;20.80;99.90
44823;DHT22;51097;51.984;5.650;2022-08-23T04:10:35;20.80;99.90
44823;DHT22;51097;51.984;5.650;2022-08-23T04:13:03;20.80;99.90
44823;DHT22;51097;51.984;5.650;2022-08-23T04:15:29;20.60;99.90
44823;DHT22;51097;51.984;5.650;2022-08-23T04:17:57;20.70;99.90
44823;DHT22;51097;51.984;5.650;2022-08-23T04:20:23;20.60;99.90
44823;DHT22;51097;51.984;5.650;2022-08-23T04:22:53;20.70;99.90
44823;DHT22;51097;51.984;5.650;2022-08-23T04:25:19;20.60;99.90
44823;DHT22;51097;51.984;5.650;2022-08-23T04:27:45;20.60;99.90
44823;DHT22;51097;51.984;5.650;2022-08-23T04:30:11;20.50;99.90
44823;DHT22;51097;51.984;5.650;2022-08-23T04:32:36;20.60;99.90
44823;DHT22;51097;51.984;5.650;2022-08-23T04:35:02;20.60;99.90
44823;DHT22;51097;51.984;5.650;2022-08-23T04:37:28;20.70;99.90
44823;DHT22;51097;51.984;5.650;2022-08-23T04:39:53;20.70;99.90
44823;DHT22;51097;51.984;5.650;2022-08-23T04:42:39;20.70;99.90
44823;DHT22;51097;51.984;5.650;2022-08-23T04:45:05;20.60;99.90
44823;DHT22;51097;51.984;5.650;2022-08-23T04:47:31;20.70;99.90
44823;DHT22;51097;51.984;5.650;2022-08-23T04:49:57;20.70;99.90
44823;DHT22;51097;51.984;5.650;2022-08-23T04:52:23;20.70;99.90
44823;DHT22;51097;51.984;5.650;2022-08-23T04:54:48;20.70;99.90
44823;DHT22;51097;51.984;5.650;2022-08-23T04:57:14;20.70;99.90
44823;DHT22;51097;51.984;5.650;2022-08-23T04:59:40;20.70;99.90
44823;DHT22;51097;51.984;5.650;2022-08-23T05:02:05;20.70;99.90
44823;DHT22;51097;51.984;5.650;2022-08-23T05:04:31;20.70;99.90
44823;DHT22;51097;51.984;5.650;2022-08-23T05:06:57;20.80;99.90
44823;DHT22;51097;51.984;5.650;2022-08-23T05:09:22;20.80;99.90
44823;DHT22;51097;51.984;5.650;2022-08-23T05:11:49;20.80;99.90
44823;DHT22;51097;51.984;5.650;2022-08-23T05:14:15;20.80;99.90
44823;DHT22;51097;51.984;5.650;2022-08-23T05:16:40;20.80;99.90
44823;DHT22;51097;51.984;5.650;2022-08-23T05:19:06;20.80;99.90
44823;DHT22;51097;51.984;5.650;2022-08-23T05:21:32;20.90;99.90
44823;DHT22;51097;51.984;5.650;2022-08-23T05:23:58;20.90;99.90
44823;DHT22;51097;51.984;5.650;2022-08-23T05:26:24;20.90;99.90
44823;DHT22;51097;51.984;5.650;2022-08-23T05:28:50;21.00;99.90
44823;DHT22;51097;51.984;5.650;2022-08-23T05:31:21;21.10;99.90
44823;DHT22;51097;51.984;5.650;2022-08-23T05:33:48;21.10;99.90
44823;DHT22;51097;51.984;5.650;2022-08-23T05:36:15;21.10;99.90
44823;DHT22;51097;51.984;5.650;2022-08-23T05:38:42;21.20;99.90
44823;DHT22;51097;51.984;5.650;2022-08-23T05:41:08;21.30;99.90
44823;DHT22;51097;51.984;5.650;2022-08-23T05:43:34;21.30;99.90
44823;DHT22;51097;51.984;5.650;2022-08-23T05:46:04;21.40;99.90
44823;DHT22;51097;51.984;5.650;2022-08-23T05:48:32;21.40;99.90
44823;DHT22;51097;51.984;5.650;2022-08-23T05:51:13;21.50;99.90
44823;DHT22;51097;51.984;5.650;2022-08-23T05:53:40;21.50;99.90
44823;DHT22;51097;51.984;5.650;2022-08-23T05:56:13;21.60;99.90
44823;DHT22;51097;51.984;5.650;2022-08-23T05:58:39;21.70;99.90
44823;DHT22;51097;51.984;5.650;2022-08-23T06:01:05;21.80;99.90
44823;DHT22;51097;51.984;5.650;2022-08-23T06:03:30;22.10;99.90
44823;DHT22;51097;51.984;5.650;2022-08-23T06:05:57;21.90;99.90
44823;DHT22;51097;51.984;5.650;2022-08-23T06:08:23;22.00;99.90
44823;DHT22;51097;51.984;5.650;2022-08-23T06:10:48;21.90;99.90
44823;DHT22;51097;51.984;5.650;2022-08-23T06:13:14;22.10;99.90
44823;DHT22;51097;51.984;5.650;2022-08-23T06:15:43;22.40;99.90
44823;DHT22;51097;51.984;5.650;2022-08-23T06:18:09;22.40;99.90
44823;DHT22;51097;51.984;5.650;2022-08-23T06:20:35;22.50;99.90
44823;DHT22;51097;51.984;5.650;2022-08-23T06:23:01;22.60;99.90
44823;DHT22;51097;51.984;5.650;2022-08-23T06:25:27;22.70;99.90
44823;DHT22;51097;51.984;5.650;2022-08-23T06:27:53;22.70;99.90
44823;DHT22;51097;51.984;5.650;2022-08-23T06:30:18;22.80;99.90
44823;DHT22;51097;51.984;5.650;2022-08-23T06:32:44;23.00;99.90
44823;DHT22;51097;51.984;5.650;2022-08-23T06:35:10;23.10;99.90
44823;DHT22;51097;51.984;5.650;2022-08-23T06:37:36;23.10;99.90
44823;DHT22;51097;51.984;5.650;2022-08-23T06:40:02;23.30;99.90
44823;DHT22;51097;51.984;5.650;2022-08-23T06:42:28;23.40;99.90
44823;DHT22;51097;51.984;5.650;2022-08-23T06:44:56;23.40;99.90
44823;DHT22;51097;51.984;5.650;2022-08-23T06:47:21;23.60;99.90
44823;DHT22;51097;51.984;5.650;2022-08-23T06:49:47;23.70;99.90
44823;DHT22;51097;51.984;5.650;2022-08-23T06:52:13;23.80;99.90
44823;DHT22;51097;51.984;5.650;2022-08-23T06:54:38;23.90;99.90
44823;DHT22;51097;51.984;5.650;2022-08-23T06:57:04;23.90;99.90
44823;DHT22;51097;51.984;5.650;2022-08-23T06:59:30;24.10;99.90
44823;DHT22;51097;51.984;5.650;2022-08-23T07:01:58;24.20;99.90
44823;DHT22;51097;51.984;5.650;2022-08-23T07:04:28;24.30;99.90
44823;DHT22;51097;51.984;5.650;2022-08-23T07:06:54;24.50;99.90
44823;DHT22;51097;51.984;5.650;2022-08-23T07:09:20;24.50;99.90
44823;DHT22;51097;51.984;5.650;2022-08-23T07:11:46;24.50;99.90
44823;DHT22;51097;51.984;5.650;2022-08-23T07:14:14;24.60;99.90
44823;DHT22;51097;51.984;5.650;2022-08-23T07:16:51;24.80;99.90
44823;DHT22;51097;51.984;5.650;2022-08-23T07:19:20;24.90;99.90
44823;DHT22;51097;51.984;5.650;2022-08-23T07:21:47;25.10;99.90
44823;DHT22;51097;51.984;5.650;2022-08-23T07:24:12;25.10;99.90
44823;DHT22;51097;51.984;5.650;2022-08-23T07:26:39;25.30;99.90
44823;DHT22;51097;51.984;5.650;2022-08-23T07:29:06;25.40;99.90
44823;DHT22;51097;51.984;5.650;2022-08-23T07:31:33;25.50;99.90
44823;DHT22;51097;51.984;5.650;2022-08-23T07:34:02;25.40;99.90
44823;DHT22;51097;51.984;5.650;2022-08-23T07:36:30;25.60;99.90
44823;DHT22;51097;51.984;5.650;2022-08-23T07:38:56;25.80;99.90
44823;DHT22;51097;51.984;5.650;2022-08-23T07:41:25;25.80;99.90
44823;DHT22;51097;51.984;5.650;2022-08-23T07:43:51;25.90;99.90
44823;DHT22;51097;51.984;5.650;2022-08-23T07:46:17;26.00;99.90
44823;DHT22;51097;51.984;5.650;2022-08-23T07:48:43;26.00;99.90
44823;DHT22;51097;51.984;5.650;2022-08-23T07:51:11;26.10;99.90
44823;DHT22;51097;51.984;5.650;2022-08-23T07:53:38;26.10;99.90
44823;DHT22;51097;51.984;5.650;2022-08-23T07:56:08;26.30;99.90
44823;DHT22;51097;51.984;5.650;2022-08-23T07:58:34;26.40;99.90
44823;DHT22;51097;51.984;5.650;2022-08-23T08:01:21;26.50;99.90
44823;DHT22;51097;51.984;5.650;2022-08-23T08:03:48;26.50;99.90
44823;DHT22;51097;51.984;5.650;2022-08-23T08:06:22;26.60;99.90
44823;DHT22;51097;51.984;5.650;2022-08-23T08:08:48;26.60;99.90
44823;DHT22;51097;51.984;5.650;2022-08-23T08:11:19;26.70;99.90
44823;DHT22;51097;51.984;5.650;2022-08-23T08:13:46;26.80;99.90
44823;DHT22;51097;51.984;5.650;2022-08-23T08:16:25;26.80;99.90
44823;DHT22;51097;51.984;5.650;2022-08-23T08:18:54;27.10;99.90
44823;DHT22;51097;51.984;5.650;2022-08-23T08:21:20;27.30;99.90
44823;DHT22;51097;51.984;5.650;2022-08-23T08:23:45;27.30;99.90
44823;DHT22;51097;51.984;5.650;2022-08-23T08:26:11;27.40;99.90
44823;DHT22;51097;51.984;5.650;2022-08-23T08:28:38;27.70;99.60
44823;DHT22;51097;51.984;5.650;2022-08-23T08:31:05;27.80;98.40
44823;DHT22;51097;51.984;5.650;2022-08-23T08:33:31;27.80;98.00
44823;DHT22;51097;51.984;5.650;2022-08-23T08:35:57;27.80;98.30
44823;DHT22;51097;51.984;5.650;2022-08-23T08:38:23;27.90;98.40
44823;DHT22;51097;51.984;5.650;2022-08-23T08:40:58;27.90;98.30
44823;DHT22;51097;51.984;5.650;2022-08-23T08:43:57;27.90;97.60
44823;DHT22;51097;51.984;5.650;2022-08-23T08:46:41;28.10;97.10
44823;DHT22;51097;51.984;5.650;2022-08-23T08:49:12;28.10;97.10
44823;DHT22;51097;51.984;5.650;2022-08-23T08:51:50;28.30;96.70
44823;DHT22;51097;51.984;5.650;2022-08-23T08:54:18;28.40;95.90
44823;DHT22;51097;51.984;5.650;2022-08-23T08:56:51;28.30;96.30
44823;DHT22;51097;51.984;5.650;2022-08-23T08:59:21;28.50;95.60
44823;DHT22;51097;51.984;5.650;2022-08-23T09:01:48;28.50;95.10
44823;DHT22;51097;51.984;5.650;2022-08-23T09:04:14;28.60;94.90
44823;DHT22;51097;51.984;5.650;2022-08-23T09:06:47;28.60;94.90
44823;DHT22;51097;51.984;5.650;2022-08-23T09:12:04;28.70;95.20
44823;DHT22;51097;51.984;5.650;2022-08-23T09:15:21;28.80;94.80
44823;DHT22;51097;51.984;5.650;2022-08-23T09:18:09;28.90;94.90
44823;DHT22;51097;51.984;5.650;2022-08-23T09:20:17;29.00;95.10
44823;DHT22;51097;51.984;5.650;2022-08-23T09:22:48;29.00;94.80
44823;DHT22;51097;51.984;5.650;2022-08-23T09:25:16;29.10;94.40
44823;DHT22;51097;51.984;5.650;2022-08-23T09:27:43;29.20;94.90
44823;DHT22;51097;51.984;5.650;2022-08-23T09:30:13;29.40;95.30
44823;DHT22;51097;51.984;5.650;2022-08-23T09:32:40;29.50;94.20
44823;DHT22;51097;51.984;5.650;2022-08-23T09:35:20;29.70;94.10
44823;DHT22;51097;51.984;5.650;2022-08-23T09:42:44;29.80;93.50
44823;DHT22;51097;51.984;5.650;2022-08-23T09:47:50;30.00;92.90
44823;DHT22;51097;51.984;5.650;2022-08-23T09:50:25;30.00;93.00
44823;DHT22;51097;51.984;5.650;2022-08-23T09:53:03;30.30;92.60
44823;DHT22;51097;51.984;5.650;2022-08-23T09:55:40;30.30;91.70
44823;DHT22;51097;51.984;5.650;2022-08-23T10:00:43;30.60;92.80
44823;DHT22;51097;51.984;5.650;2022-08-23T10:03:27;30.70;92.00
44823;DHT22;51097;51.984;5.650;2022-08-23T10:06:00;30.90;92.00
44823;DHT22;51097;51.984;5.650;2022-08-23T10:08:29;31.10;90.90
44823;DHT22;51097;51.984;5.650;2022-08-23T10:11:35;31.20;90.10
44823;DHT22;51097;51.984;5.650;2022-08-23T10:14:01;31.20;87.40
44823;DHT22;51097;51.984;5.650;2022-08-23T10:16:54;31.20;88.70
44823;DHT22;51097;51.984;5.650;2022-08-23T10:19:43;31.30;89.60
44823;DHT22;51097;51.984;5.650;2022-08-23T10:25:09;31.30;87.10
44823;DHT22;51097;51.984;5.650;2022-08-23T10:27:54;31.30;87.50
44823;DHT22;51097;51.984;5.650;2022-08-23T10:33:35;31.40;85.70
44823;DHT22;51097;51.984;5.650;2022-08-23T10:36:27;31.40;84.40
44823;DHT22;51097;51.984;5.650;2022-08-23T10:38:58;31.50;84.50
44823;DHT22;51097;51.984;5.650;2022-08-23T10:44:05;31.60;86.10
44823;DHT22;51097;51.984;5.650;2022-08-23T10:46:38;31.60;84.20
44823;DHT22;51097;51.984;5.650;2022-08-23T10:49:10;31.60;86.40
44823;DHT22;51097;51.984;5.650;2022-08-23T10:51:41;31.80;85.70
44823;DHT22;51097;51.984;5.650;2022-08-23T10:54:20;31.80;86.20
44823;DHT22;51097;51.984;5.650;2022-08-23T10:56:59;31.80;86.10
44823;DHT22;51097;51.984;5.650;2022-08-23T10:59:26;31.90;84.70
44823;DHT22;51097;51.984;5.650;2022-08-23T11:07:30;31.90;84.60
44823;DHT22;51097;51.984;5.650;2022-08-23T11:12:32;32.00;83.40
44823;DHT22;51097;51.984;5.650;2022-08-23T11:15:11;32.00;83.60
44823;DHT22;51097;51.984;5.650;2022-08-23T11:25:59;32.40;83.40
44823;DHT22;51097;51.984;5.650;2022-08-23T11:34:05;32.40;81.40
44823;DHT22;51097;51.984;5.650;2022-08-23T11:36:32;32.50;81.70
44823;DHT22;51097;51.984;5.650;2022-08-23T11:39:05;32.60;80.40
44823;DHT22;51097;51.984;5.650;2022-08-23T11:41:34;32.60;80.10
44823;DHT22;51097;51.984;5.650;2022-08-23T11:46:35;32.80;81.30
44823;DHT22;51097;51.984;5.650;2022-08-23T12:00:24;32.70;80.10
44823;DHT22;51097;51.984;5.650;2022-08-23T12:16:24;33.00;79.60
44823;DHT22;51097;51.984;5.650;2022-08-23T12:18:54;33.00;77.00
44823;DHT22;51097;51.984;5.650;2022-08-23T12:23:54;33.10;77.20
44823;DHT22;51097;51.984;5.650;2022-08-23T12:28:56;33.30;77.80
44823;DHT22;51097;51.984;5.650;2022-08-23T12:31:40;33.30;76.30
44823;DHT22;51097;51.984;5.650;2022-08-23T12:34:24;33.20;76.30
44823;DHT22;51097;51.984;5.650;2022-08-23T12:39:54;33.50;78.10
44823;DHT22;51097;51.984;5.650;2022-08-23T12:42:26;33.70;77.50
44823;DHT22;51097;51.984;5.650;2022-08-23T12:45:15;33.70;79.10
44823;DHT22;51097;51.984;5.650;2022-08-23T12:47:43;33.90;77.30
44823;DHT22;51097;51.984;5.650;2022-08-23T12:50:18;33.90;77.10
44823;DHT22;51097;51.984;5.650;2022-08-23T12:53:01;33.80;75.80
44823;DHT22;51097;51.984;5.650;2022-08-23T12:55:31;34.10;77.10
44823;DHT22;51097;51.984;5.650;2022-08-23T12:57:57;34.10;76.80
44823;DHT22;51097;51.984;5.650;2022-08-23T13:00:39;34.10;76.60
44823;DHT22;51097;51.984;5.650;2022-08-23T13:03:19;34.20;77.30
44823;DHT22;51097;51.984;5.650;2022-08-23T13:05:48;34.40;76.00
44823;DHT22;51097;51.984;5.650;2022-08-23T13:08:24;34.50;75.60
44823;DHT22;51097;51.984;5.650;2022-08-23T13:10:50;34.50;75.20
44823;DHT22;51097;51.984;5.650;2022-08-23T13:13:20;34.50;73.60
44823;DHT22;51097;51.984;5.650;2022-08-23T13:23:48;34.60;74.10
44823;DHT22;51097;51.984;5.650;2022-08-23T13:34:43;35.00;72.10
44823;DHT22;51097;51.984;5.650;2022-08-23T13:37:28;35.00;70.30
44823;DHT22;51097;51.984;5.650;2022-08-23T13:39:56;35.20;71.50
44823;DHT22;51097;51.984;5.650;2022-08-23T13:42:42;35.30;72.30
44823;DHT22;51097;51.984;5.650;2022-08-23T13:45:18;35.60;71.60
44823;DHT22;51097;51.984;5.650;2022-08-23T13:47:46;35.70;71.00
44823;DHT22;51097;51.984;5.650;2022-08-23T13:50:26;36.00;70.00
44823;DHT22;51097;51.984;5.650;2022-08-23T13:52:51;36.20;70.00
44823;DHT22;51097;51.984;5.650;2022-08-23T13:55:17;36.30;69.60
44823;DHT22;51097;51.984;5.650;2022-08-23T13:57:43;36.70;70.90
44823;DHT22;51097;51.984;5.650;2022-08-23T14:00:09;36.90;69.20
44823;DHT22;51097;51.984;5.650;2022-08-23T14:02:36;37.10;68.10
44823;DHT22;51097;51.984;5.650;2022-08-23T14:05:04;37.30;67.00
44823;DHT22;51097;51.984;5.650;2022-08-23T14:07:29;37.60;69.20
44823;DHT22;51097;51.984;5.650;2022-08-23T14:09:55;37.80;67.90
44823;DHT22;51097;51.984;5.650;2022-08-23T14:12:24;37.90;64.30
44823;DHT22;51097;51.984;5.650;2022-08-23T14:14:50;37.80;65.20
44823;DHT22;51097;51.984;5.650;2022-08-23T14:17:16;37.90;68.10
44823;DHT22;51097;51.984;5.650;2022-08-23T14:19:42;38.00;66.70
44823;DHT22;51097;51.984;5.650;2022-08-23T14:22:11;38.20;65.50
44823;DHT22;51097;51.984;5.650;2022-08-23T14:24:36;38.40;66.30
44823;DHT22;51097;51.984;5.650;2022-08-23T14:27:03;38.60;64.00
44823;DHT22;51097;51.984;5.650;2022-08-23T14:29:28;38.60;63.80
44823;DHT22;51097;51.984;5.650;2022-08-23T14:31:57;38.70;64.00
44823;DHT22;51097;51.984;5.650;2022-08-23T14:34:23;38.70;63.30
44823;DHT22;51097;51.984;5.650;2022-08-23T14:36:50;39.10;65.60
44823;DHT22;51097;51.984;5.650;2022-08-23T14:39:16;39.30;64.00
44823;DHT22;51097;51.984;5.650;2022-08-23T14:41:42;39.70;64.60
44823;DHT22;51097;51.984;5.650;2022-08-23T14:44:07;39.90;62.20
44823;DHT22;51097;51.984;5.650;2022-08-23T14:46:33;40.00;60.30
44823;DHT22;51097;51.984;5.650;2022-08-23T14:48:58;39.90;61.20
44823;DHT22;51097;51.984;5.650;2022-08-23T14:51:29;39.90;59.50
44823;DHT22;51097;51.984;5.650;2022-08-23T14:53:56;39.80;61.40
44823;DHT22;51097;51.984;5.650;2022-08-23T14:56:22;39.90;60.60
44823;DHT22;51097;51.984;5.650;2022-08-23T14:58:48;39.80;59.80
44823;DHT22;51097;51.984;5.650;2022-08-23T15:01:15;39.70;60.70
44823;DHT22;51097;51.984;5.650;2022-08-23T15:03:41;39.70;59.80
44823;DHT22;51097;51.984;5.650;2022-08-23T15:06:11;39.70;61.30
44823;DHT22;51097;51.984;5.650;2022-08-23T15:08:37;39.80;60.50
44823;DHT22;51097;51.984;5.650;2022-08-23T15:11:03;40.00;61.20
44823;DHT22;51097;51.984;5.650;2022-08-23T15:13:31;39.90;60.20
44823;DHT22;51097;51.984;5.650;2022-08-23T15:15:57;39.80;59.40
44823;DHT22;51097;51.984;5.650;2022-08-23T15:18:23;39.80;59.60
44823;DHT22;51097;51.984;5.650;2022-08-23T15:20:49;39.70;60.00
44823;DHT22;51097;51.984;5.650;2022-08-23T15:23:14;39.80;59.40
44823;DHT22;51097;51.984;5.650;2022-08-23T15:25:41;39.70;59.30
44823;DHT22;51097;51.984;5.650;2022-08-23T15:28:10;39.60;59.00
44823;DHT22;51097;51.984;5.650;2022-08-23T15:30:36;39.30;59.20
44823;DHT22;51097;51.984;5.650;2022-08-23T15:33:02;39.20;60.40
44823;DHT22;51097;51.984;5.650;2022-08-23T15:35:28;39.10;60.30
44823;DHT22;51097;51.984;5.650;2022-08-23T15:37:57;39.10;60.70
44823;DHT22;51097;51.984;5.650;2022-08-23T15:40:24;39.20;61.40
44823;DHT22;51097;51.984;5.650;2022-08-23T15:42:49;39.30;60.60
44823;DHT22;51097;51.984;5.650;2022-08-23T15:45:15;39.40;60.40
44823;DHT22;51097;51.984;5.650;2022-08-23T15:47:45;39.60;61.80
44823;DHT22;51097;51.984;5.650;2022-08-23T15:50:12;39.60;60.20
44823;DHT22;51097;51.984;5.650;2022-08-23T15:52:38;39.60;60.00
44823;DHT22;51097;51.984;5.650;2022-08-23T15:55:04;39.70;60.00
44823;DHT22;51097;51.984;5.650;2022-08-23T15:57:31;39.90;59.70
44823;DHT22;51097;51.984;5.650;2022-08-23T15:59:59;40.00;60.00
44823;DHT22;51097;51.984;5.650;2022-08-23T16:02:25;40.00;60.70
44823;DHT22;51097;51.984;5.650;2022-08-23T16:04:50;39.80;59.70
44823;DHT22;51097;51.984;5.650;2022-08-23T16:07:16;39.90;59.50
44823;DHT22;51097;51.984;5.650;2022-08-23T16:09:42;39.90;60.30
44823;DHT22;51097;51.984;5.650;2022-08-23T16:12:09;39.90;60.20
44823;DHT22;51097;51.984;5.650;2022-08-23T16:14:35;39.90;60.00
44823;DHT22;51097;51.984;5.650;2022-08-23T16:17:01;40.10;60.30
44823;DHT22;51097;51.984;5.650;2022-08-23T16:19:27;40.10;60.00
44823;DHT22;51097;51.984;5.650;2022-08-23T16:21:52;39.90;60.00
44823;DHT22;51097;51.984;5.650;2022-08-23T16:24:19;39.70;59.80
44823;DHT22;51097;51.984;5.650;2022-08-23T16:26:45;39.60;59.40
44823;DHT22;51097;51.984;5.650;2022-08-23T16:29:13;39.40;60.00
44823;DHT22;51097;51.984;5.650;2022-08-23T16:31:40;39.40;61.60
44823;DHT22;51097;51.984;5.650;2022-08-23T16:34:08;39.30;61.30
44823;DHT22;51097;51.984;5.650;2022-08-23T16:36:34;39.40;61.50
44823;DHT22;51097;51.984;5.650;2022-08-23T16:39:00;39.30;60.80
44823;DHT22;51097;51.984;5.650;2022-08-23T16:41:25;39.30;60.80
44823;DHT22;51097;51.984;5.650;2022-08-23T16:43:51;39.30;61.50
44823;DHT22;51097;51.984;5.650;2022-08-23T16:46:18;39.30;62.40
44823;DHT22;51097;51.984;5.650;2022-08-23T16:48:44;39.20;61.10
44823;DHT22;51097;51.984;5.650;2022-08-23T16:51:11;39.10;61.20
44823;DHT22;51097;51.984;5.650;2022-08-23T16:53:37;39.10;61.30
44823;DHT22;51097;51.984;5.650;2022-08-23T16:56:04;39.00;62.50
44823;DHT22;51097;51.984;5.650;2022-08-23T16:58:30;38.80;61.60
44823;DHT22;51097;51.984;5.650;2022-08-23T17:00:56;38.70;62.50
44823;DHT22;51097;51.984;5.650;2022-08-23T17:03:21;38.80;64.50
44823;DHT22;51097;51.984;5.650;2022-08-23T17:05:48;38.70;63.80
44823;DHT22;51097;51.984;5.650;2022-08-23T17:08:13;38.60;62.70
44823;DHT22;51097;51.984;5.650;2022-08-23T17:10:39;38.60;62.80
44823;DHT22;51097;51.984;5.650;2022-08-23T17:13:06;38.50;64.10
44823;DHT22;51097;51.984;5.650;2022-08-23T17:15:34;38.50;65.00
44823;DHT22;51097;51.984;5.650;2022-08-23T17:18:00;38.40;63.50
44823;DHT22;51097;51.984;5.650;2022-08-23T17:20:28;38.30;63.50
44823;DHT22;51097;51.984;5.650;2022-08-23T17:22:54;38.20;63.90